To NAV CANADA Home Page Login to a new session Search on AWWS site Disclaimer Vers la page française équivalente Tips FAQ What's new on the site To the Forecasts and Observations / NOTAM section To "File a Flight Plan" website Publications and other links Update of the User's profile FIC Telephone Numbers My Weather Data Folder Route Weather Data Regional Weather Data Local Weather Data To the Forecasts and Observations / NOTAM section
Request Generated 09/19/2018 at 04:52:28 UTC . Weather information available at that time is displayed.

METAR/TAF

If you find any discrepancies between the coded METAR/TAF and the plain language METAR/TAF please use the coded METAR/TAF. LWIS bulletins are not decoded in plain language.

LONDON/ON    

METAR CYXU 190400Z 34006KT 15SM BKN110 15/14 A2996 RMK AC7 SLP146 DENSITY ALT 1 0FT=
METAR
LOCATION
CYXU - LONDON/ON
DATE - TIME
19 SEPTEMBER 2018 - 0400 UTC
WIND
340 TRUE @ 6  KNOTS
VISIBILITY
15 STAT.  MILES
RUNWAY VISUAL RANGE
WEATHER
CLOUDINESS
BROKEN CLOUDS (5/8 - 7/8) 11000  FT
TEMP / DEWPOINT
15 C / 14 C
ALTIMETER
29.96 IN HG
RECENT WEATHER
WIND SHEAR

METAR CYXU 190300Z 34005KT 15SM BKN110 BKN190 16/14 A2995 RMK AC5CI2 SLP141 DEN TY ALT 1200FT=
METAR
LOCATION
CYXU - LONDON/ON
DATE - TIME
19 SEPTEMBER 2018 - 0300 UTC
WIND
340 TRUE @ 5  KNOTS
VISIBILITY
15 STAT.  MILES
RUNWAY VISUAL RANGE
WEATHER
CLOUDINESS
BROKEN CLOUDS (5/8 - 7/8) 11000  FT
BROKEN CLOUDS (5/8 - 7/8) 19000  FT
TEMP / DEWPOINT
16 C / 14 C
ALTIMETER
29.95 IN HG
RECENT WEATHER
WIND SHEAR

METAR CYXU 190200Z 35005KT 15SM SCT110 BKN200 16/14 A2995 RMK AC3CI3 SLP141 DEN TY ALT 1300FT=
METAR
LOCATION
CYXU - LONDON/ON
DATE - TIME
19 SEPTEMBER 2018 - 0200 UTC
WIND
350 TRUE @ 5  KNOTS
VISIBILITY
15 STAT.  MILES
RUNWAY VISUAL RANGE
WEATHER
CLOUDINESS
SCATTERED CLOUDS (3/8 - 4/8) 11000  FT
BROKEN CLOUDS (5/8 - 7/8) 20000  FT
TEMP / DEWPOINT
16 C / 14 C
ALTIMETER
29.95 IN HG
RECENT WEATHER
WIND SHEAR

TAF CYXU 182338Z 1900/1924 30008KT P6SM FEW025 FM190600 30006KT P6SM BKN030 FM191600 05005KT P6SM SCT030 RMK NXT FCST BY 190600Z=
TAF
LOCATION

CYXU - LONDON/ON
VALIDITY [UTC]
18 SEP - 2338 to
20 SEP - 0000
 
TIMES
[UTC]
WIND
[DEGREES TRUE]
VISIBILITY
[STAT. MILES]
WEATHER
CLOUDINESS
[FEET AGL]
 
19 SEP - 0000 to
19 SEP - 0600
300 @ 8 KNOTS
6+
NIL
2500 FEW
 
19 SEP - 0600 to
19 SEP - 1600
300 @ 6 KNOTS
6+
NIL
3000 BROKEN
 
19 SEP - 1600 to
20 SEP - 0000
50 @ 5 KNOTS
6+
NIL
3000 SCATTERED
REMARKS
THE NEXT FORECAST WILL BE ISSUED BY 0600 UTC ON DAY 19


Your time UTC time
Weather data provided by Environment Canada and NAV CANADA